KFBR

Fort Bridger Airport

Fort Bridger, Wyoming, USA
METAR KFBR 211320Z AUTO 01005KT 10SM CLR M08/M08 A2954 RMK AO2 T10791080
Observed Flight Rules
Jan-21 @ 13:20 UTC (3 hours ago) Visual Flight Rules
Wind Visibility Clouds
10° at 5 knots 10 miles
  • Clear skies
Temperatures Readings
Current -8°C / 18°F
Dewpoint -8°C / 18°F
Humidity 100%
Altimeter 29.54" Hg
Pressure 1000.32 hPa
Elevation 2144
METAR KFBR 211320Z AUTO 01005KT 10SM CLR M08/M08 A2954 RMK AO2 T10791080
Observed Flight Rules
Jan-21 @ 13:20 UTC
(3 hours ago)
VFR
Wind Visibility
10° at 5 knots 10 miles
Clouds
  • Clear skies
Temperature Dewpoint
-8°C / 18°F -8°C / 18°F
Humidity Altimeter Pressure
100% 29.54" Hg 1000.32 hPa